Terminal Aerodrome Forecast
Issued by NWS Anchorage, AK

Home | Current Version | Previous Version | Text Only | Print | Product List | Glossary On
Versions: 1 2 3 4 5 6 7 8 9 10 11 12 13 14 15 16 17 18
000
FTAK31 PANC 260536
TAFANC
TAF
PANC 260536Z 2606/2712 25008KT P6SM FEW050 SCT160
     FM260900 18004KT P6SM FEW060 SCT200
     FM262200 28008KT P6SM VCSH OVC060
     FM270200 17015G25KT P6SM OVC080
     FM270800 15008KT P6SM OVC080=

USA.gov is the U.S. government's official web portal to all federal, state and local government web resources and services.